sensor_id;sensor_type;location;lat;lon;timestamp;pressure;altitude;pressure_sealevel;temperature;humidity
7264;BME280;3673;52.480;13.348;2023-04-28T00:00:02;101522.97;;;11.79;38.47
7264;BME280;3673;52.480;13.348;2023-04-28T00:02:29;101521.88;;;11.56;38.87
7264;BME280;3673;52.480;13.348;2023-04-28T00:04:55;101528.88;;;11.55;38.91
7264;BME280;3673;52.480;13.348;2023-04-28T00:07:22;101525.19;;;11.32;39.37
7264;BME280;3673;52.480;13.348;2023-04-28T00:09:49;101523.59;;;11.49;39.22
7264;BME280;3673;52.480;13.348;2023-04-28T00:12:16;101524.56;;;11.65;39.11
7264;BME280;3673;52.480;13.348;2023-04-28T00:14:43;101514.25;;;11.87;39.11
7264;BME280;3673;52.480;13.348;2023-04-28T00:17:11;101517.94;;;12.14;38.69
7264;BME280;3673;52.480;13.348;2023-04-28T00:19:37;101519.78;;;12.36;38.03
7264;BME280;3673;52.480;13.348;2023-04-28T00:22:04;101506.63;;;12.28;38.05
7264;BME280;3673;52.480;13.348;2023-04-28T00:24:31;101517.13;;;12.27;38.09
7264;BME280;3673;52.480;13.348;2023-04-28T00:27:00;101509.25;;;12.28;38.01
7264;BME280;3673;52.480;13.348;2023-04-28T00:29:27;101502.88;;;11.82;38.26
7264;BME280;3673;52.480;13.348;2023-04-28T00:31:54;101512.53;;;11.88;38.42
7264;BME280;3673;52.480;13.348;2023-04-28T00:34:22;101507.25;;;11.85;38.36
7264;BME280;3673;52.480;13.348;2023-04-28T00:36:49;101501.09;;;11.74;38.61
7264;BME280;3673;52.480;13.348;2023-04-28T00:39:16;101506.44;;;11.89;39.27
7264;BME280;3673;52.480;13.348;2023-04-28T00:41:43;101508.25;;;12.01;38.54
7264;BME280;3673;52.480;13.348;2023-04-28T00:44:10;101504.84;;;12.17;38.04
7264;BME280;3673;52.480;13.348;2023-04-28T00:46:37;101504.75;;;12.08;38.43
7264;BME280;3673;52.480;13.348;2023-04-28T00:49:03;101497.59;;;11.75;38.44
7264;BME280;3673;52.480;13.348;2023-04-28T00:51:32;101499.31;;;11.71;38.64
7264;BME280;3673;52.480;13.348;2023-04-28T00:53:59;101492.88;;;11.34;39.35
7264;BME280;3673;52.480;13.348;2023-04-28T00:56:27;101484.38;;;11.63;38.95
7264;BME280;3673;52.480;13.348;2023-04-28T00:58:55;101486.94;;;11.52;39.08
7264;BME280;3673;52.480;13.348;2023-04-28T01:01:22;101485.16;;;11.50;38.96
7264;BME280;3673;52.480;13.348;2023-04-28T01:03:49;101480.03;;;11.63;39.20
7264;BME280;3673;52.480;13.348;2023-04-28T01:06:16;101486.38;;;12.02;38.47
7264;BME280;3673;52.480;13.348;2023-04-28T01:08:48;101483.84;;;12.18;37.69
7264;BME280;3673;52.480;13.348;2023-04-28T01:11:15;101477.78;;;12.27;37.65
7264;BME280;3673;52.480;13.348;2023-04-28T01:13:42;101477.81;;;12.48;37.41
7264;BME280;3673;52.480;13.348;2023-04-28T01:16:08;101474.31;;;12.45;37.12
7264;BME280;3673;52.480;13.348;2023-04-28T01:18:35;101475.22;;;12.53;37.06
7264;BME280;3673;52.480;13.348;2023-04-28T01:21:03;101472.59;;;12.47;36.98
7264;BME280;3673;52.480;13.348;2023-04-28T01:23:30;101462.97;;;12.46;37.01
7264;BME280;3673;52.480;13.348;2023-04-28T01:25:58;101467.28;;;12.37;37.22
7264;BME280;3673;52.480;13.348;2023-04-28T01:28:26;101455.09;;;12.58;36.98
7264;BME280;3673;52.480;13.348;2023-04-28T01:30:53;101462.97;;;12.47;37.08
7264;BME280;3673;52.480;13.348;2023-04-28T01:33:21;101463.81;;;12.35;37.23
7264;BME280;3673;52.480;13.348;2023-04-28T01:35:47;101451.53;;;12.34;37.48
7264;BME280;3673;52.480;13.348;2023-04-28T01:38:14;101457.69;;;12.33;37.47
7264;BME280;3673;52.480;13.348;2023-04-28T01:40:41;101468.19;;;12.33;37.45
7264;BME280;3673;52.480;13.348;2023-04-28T01:43:09;101459.41;;;12.30;37.58
7264;BME280;3673;52.480;13.348;2023-04-28T01:45:36;101452.44;;;12.36;36.97
7264;BME280;3673;52.480;13.348;2023-04-28T01:48:03;101448.94;;;12.39;37.21
7264;BME280;3673;52.480;13.348;2023-04-28T01:50:30;101448.94;;;12.33;37.52
7264;BME280;3673;52.480;13.348;2023-04-28T01:52:56;101449.81;;;12.27;37.69
7264;BME280;3673;52.480;13.348;2023-04-28T01:55:23;101454.19;;;12.36;37.79
7264;BME280;3673;52.480;13.348;2023-04-28T01:57:50;101462.88;;;12.21;37.86
7264;BME280;3673;52.480;13.348;2023-04-28T02:00:19;101445.44;;;12.32;37.70
7264;BME280;3673;52.480;13.348;2023-04-28T02:02:46;101442.81;;;12.42;38.04
7264;BME280;3673;52.480;13.348;2023-04-28T02:05:13;101439.28;;;12.29;38.17
7264;BME280;3673;52.480;13.348;2023-04-28T02:07:39;101440.16;;;12.25;38.34
7264;BME280;3673;52.480;13.348;2023-04-28T02:10:08;101441.91;;;12.26;38.39
7264;BME280;3673;52.480;13.348;2023-04-28T02:12:35;101436.63;;;12.24;38.76
7264;BME280;3673;52.480;13.348;2023-04-28T02:15:02;101442.72;;;12.14;38.70
7264;BME280;3673;52.480;13.348;2023-04-28T02:17:30;101445.31;;;12.04;39.22
7264;BME280;3673;52.480;13.348;2023-04-28T02:19:57;101441.81;;;12.08;38.85
7264;BME280;3673;52.480;13.348;2023-04-28T02:22:24;101443.59;;;12.10;39.02
7264;BME280;3673;52.480;13.348;2023-04-28T02:24:51;101439.25;;;12.17;38.83
7264;BME280;3673;52.480;13.348;2023-04-28T02:27:18;101441.00;;;12.16;38.91
7264;BME280;3673;52.480;13.348;2023-04-28T02:29:45;101446.22;;;12.15;39.09
7264;BME280;3673;52.480;13.348;2023-04-28T02:32:12;101439.19;;;12.05;39.57
7264;BME280;3673;52.480;13.348;2023-04-28T02:34:40;101444.44;;;12.00;39.84
7264;BME280;3673;52.480;13.348;2023-04-28T02:37:06;101432.25;;;12.13;39.61
7264;BME280;3673;52.480;13.348;2023-04-28T02:39:33;101433.06;;;12.03;40.32
7264;BME280;3673;52.480;13.348;2023-04-28T02:42:00;101425.22;;;12.06;40.25
7264;BME280;3673;52.480;13.348;2023-04-28T02:44:29;101427.78;;;11.95;40.48
7264;BME280;3673;52.480;13.348;2023-04-28T02:46:56;101421.66;;;11.87;41.16
7264;BME280;3673;52.480;13.348;2023-04-28T02:49:23;101420.78;;;11.90;41.10
7264;BME280;3673;52.480;13.348;2023-04-28T02:51:51;101428.63;;;11.83;41.30
7264;BME280;3673;52.480;13.348;2023-04-28T02:54:18;101418.00;;;11.68;41.92
7264;BME280;3673;52.480;13.348;2023-04-28T02:56:51;101422.50;;;11.84;41.32
7264;BME280;3673;52.480;13.348;2023-04-28T02:59:18;101427.72;;;11.77;41.86
7264;BME280;3673;52.480;13.348;2023-04-28T03:01:45;101421.66;;;11.93;41.28
7264;BME280;3673;52.480;13.348;2023-04-28T03:04:12;101419.78;;;11.71;42.16
7264;BME280;3673;52.480;13.348;2023-04-28T03:06:39;101424.13;;;11.67;42.18
7264;BME280;3673;52.480;13.348;2023-04-28T03:09:07;101418.09;;;11.79;41.72
7264;BME280;3673;52.480;13.348;2023-04-28T03:11:35;101412.81;;;11.74;42.19
7264;BME280;3673;52.480;13.348;2023-04-28T03:14:02;101415.50;;;11.77;42.31
7264;BME280;3673;52.480;13.348;2023-04-28T03:16:28;101410.28;;;11.91;42.26
7264;BME280;3673;52.480;13.348;2023-04-28T03:18:55;101415.44;;;11.74;42.40
7264;BME280;3673;52.480;13.348;2023-04-28T03:21:22;101414.50;;;11.66;42.77
7264;BME280;3673;52.480;13.348;2023-04-28T03:23:51;101406.72;;;11.74;42.79
7264;BME280;3673;52.480;13.348;2023-04-28T03:26:19;101411.00;;;11.63;42.98
7264;BME280;3673;52.480;13.348;2023-04-28T03:28:46;101408.50;;;11.79;42.73
7264;BME280;3673;52.480;13.348;2023-04-28T03:31:13;101402.28;;;11.64;42.95
7264;BME280;3673;52.480;13.348;2023-04-28T03:33:40;101397.03;;;11.65;42.81
7264;BME280;3673;52.480;13.348;2023-04-28T03:36:09;101404.00;;;11.62;43.01
7264;BME280;3673;52.480;13.348;2023-04-28T03:38:36;101404.84;;;11.59;42.83
7264;BME280;3673;52.480;13.348;2023-04-28T03:41:03;101396.19;;;11.69;42.58
7264;BME280;3673;52.480;13.348;2023-04-28T03:43:31;101400.59;;;11.72;42.86
7264;BME280;3673;52.480;13.348;2023-04-28T03:46:00;101400.50;;;11.61;43.21
7264;BME280;3673;52.480;13.348;2023-04-28T03:48:26;101394.34;;;11.50;43.41
7264;BME280;3673;52.480;13.348;2023-04-28T03:50:53;101398.81;;;11.71;43.01
7264;BME280;3673;52.480;13.348;2023-04-28T03:53:20;101393.63;;;11.77;42.83
7264;BME280;3673;52.480;13.348;2023-04-28T03:55:47;101402.22;;;11.58;43.19
7264;BME280;3673;52.480;13.348;2023-04-28T03:58:14;101385.66;;;11.57;43.17
7264;BME280;3673;52.480;13.348;2023-04-28T04:00:42;101397.03;;;11.65;43.19
7264;BME280;3673;52.480;13.348;2023-04-28T04:03:08;101386.63;;;11.73;42.73
7264;BME280;3673;52.480;13.348;2023-04-28T04:05:35;101393.63;;;11.77;42.75
7264;BME280;3673;52.480;13.348;2023-04-28T04:08:02;101377.84;;;11.71;42.43
7264;BME280;3673;52.480;13.348;2023-04-28T04:10:30;101384.81;;;11.66;42.86
7264;BME280;3673;52.480;13.348;2023-04-28T04:12:57;101374.28;;;11.64;42.99
7264;BME280;3673;52.480;13.348;2023-04-28T04:15:23;101378.66;;;11.59;42.80
7264;BME280;3673;52.480;13.348;2023-04-28T04:17:51;101388.31;;;11.66;42.99
7264;BME280;3673;52.480;13.348;2023-04-28T04:20:18;101377.81;;;11.63;43.00
7264;BME280;3673;52.480;13.348;2023-04-28T04:22:45;101383.03;;;11.65;42.89
7264;BME280;3673;52.480;13.348;2023-04-28T04:25:12;101377.84;;;11.71;42.70
7264;BME280;3673;52.480;13.348;2023-04-28T04:27:39;101377.00;;;11.70;42.94
7264;BME280;3673;52.480;13.348;2023-04-28T04:30:07;101370.88;;;11.74;42.78
7264;BME280;3673;52.480;13.348;2023-04-28T04:32:34;101375.16;;;11.62;43.07
7264;BME280;3673;52.480;13.348;2023-04-28T04:35:02;101371.78;;;11.73;42.68
7264;BME280;3673;52.480;13.348;2023-04-28T04:37:29;101367.41;;;11.74;42.80
7264;BME280;3673;52.480;13.348;2023-04-28T04:39:56;101366.53;;;11.78;42.76
7264;BME280;3673;52.480;13.348;2023-04-28T04:42:23;101362.19;;;11.80;42.92
7264;BME280;3673;52.480;13.348;2023-04-28T04:44:49;101361.31;;;11.85;42.41
7264;BME280;3673;52.480;13.348;2023-04-28T04:47:16;101368.34;;;11.96;42.28
7264;BME280;3673;52.480;13.348;2023-04-28T04:49:43;101363.13;;;11.99;42.36
7264;BME280;3673;52.480;13.348;2023-04-28T04:52:11;101366.59;;;11.93;42.40
7264;BME280;3673;52.480;13.348;2023-04-28T04:54:38;101360.47;;;11.88;42.61
7264;BME280;3673;52.480;13.348;2023-04-28T04:57:05;101368.31;;;11.91;42.48
7264;BME280;3673;52.480;13.348;2023-04-28T04:59:31;101362.19;;;11.80;42.61
7264;BME280;3673;52.480;13.348;2023-04-28T05:01:58;101351.78;;;12.03;42.57
7264;BME280;3673;52.480;13.348;2023-04-28T05:04:25;101349.19;;;12.18;42.36
7264;BME280;3673;52.480;13.348;2023-04-28T05:06:51;101351.84;;;12.31;41.97
7264;BME280;3673;52.480;13.348;2023-04-28T05:09:19;101357.94;;;12.23;41.95
7264;BME280;3673;52.480;13.348;2023-04-28T05:11:47;101350.94;;;12.31;41.28
7264;BME280;3673;52.480;13.348;2023-04-28T05:14:14;101348.34;;;12.32;41.72
7264;BME280;3673;52.480;13.348;2023-04-28T05:16:41;101350.09;;;12.52;41.35
7264;BME280;3673;52.480;13.348;2023-04-28T05:19:09;101351.00;;;12.61;41.26
7264;BME280;3673;52.480;13.348;2023-04-28T05:21:35;101345.75;;;12.63;41.11
7264;BME280;3673;52.480;13.348;2023-04-28T05:24:02;101339.63;;;12.74;40.76
7264;BME280;3673;52.480;13.348;2023-04-28T05:26:31;101344.88;;;12.86;40.39
7264;BME280;3673;52.480;13.348;2023-04-28T05:28:57;101338.75;;;12.86;40.56
7264;BME280;3673;52.480;13.348;2023-04-28T05:31:24;101337.84;;;13.02;40.11
7264;BME280;3673;52.480;13.348;2023-04-28T05:33:51;101330.88;;;13.10;40.21
7264;BME280;3673;52.480;13.348;2023-04-28T05:36:17;101336.09;;;13.24;39.93
7264;BME280;3673;52.480;13.348;2023-04-28T05:38:44;101331.72;;;13.20;40.00
7264;BME280;3673;52.480;13.348;2023-04-28T05:41:11;101329.13;;;13.11;40.47
7264;BME280;3673;52.480;13.348;2023-04-28T05:43:39;101317.69;;;13.37;39.49
7264;BME280;3673;52.480;13.348;2023-04-28T05:46:06;101321.97;;;13.63;39.17
7264;BME280;3673;52.480;13.348;2023-04-28T05:48:32;101317.50;;;13.78;39.04
7264;BME280;3673;52.480;13.348;2023-04-28T05:50:59;101312.34;;;13.60;39.39
7264;BME280;3673;52.480;13.348;2023-04-28T05:53:26;101318.47;;;13.61;39.30
7264;BME280;3673;52.480;13.348;2023-04-28T05:55:53;101307.88;;;13.74;38.97
7264;BME280;3673;52.480;13.348;2023-04-28T05:58:19;101316.69;;;13.58;39.10
7264;BME280;3673;52.480;13.348;2023-04-28T06:00:48;101307.91;;;13.68;39.06
7264;BME280;3673;52.480;13.348;2023-04-28T06:03:15;101304.31;;;13.87;38.85
7264;BME280;3673;52.480;13.348;2023-04-28T06:05:43;101314.75;;;13.98;38.35
7264;BME280;3673;52.480;13.348;2023-04-28T06:08:10;101302.41;;;14.14;37.98
7264;BME280;3673;52.480;13.348;2023-04-28T06:10:37;101295.25;;;14.29;37.67
7264;BME280;3673;52.480;13.348;2023-04-28T06:13:04;101294.28;;;14.46;37.22
7264;BME280;3673;52.480;13.348;2023-04-28T06:15:31;101290.84;;;14.36;37.07
7264;BME280;3673;52.480;13.348;2023-04-28T06:17:59;101297.84;;;14.40;36.99
7264;BME280;3673;52.480;13.348;2023-04-28T06:20:26;101293.31;;;14.60;36.42
7264;BME280;3673;52.480;13.348;2023-04-28T06:22:53;101299.28;;;14.79;35.99
7264;BME280;3673;52.480;13.348;2023-04-28T06:25:20;101294.13;;;14.67;36.31
7264;BME280;3673;52.480;13.348;2023-04-28T06:27:47;101283.56;;;14.68;36.33
7264;BME280;3673;52.480;13.348;2023-04-28T06:30:17;101289.59;;;14.84;35.98
7264;BME280;3673;52.480;13.348;2023-04-28T06:32:45;101282.59;;;14.78;35.89
7264;BME280;3673;52.480;13.348;2023-04-28T06:35:14;101285.16;;;14.87;35.55
7264;BME280;3673;52.480;13.348;2023-04-28T06:37:41;101275.25;;;15.09;35.40
7264;BME280;3673;52.480;13.348;2023-04-28T06:40:09;101276.25;;;15.01;35.20
7264;BME280;3673;52.480;13.348;2023-04-28T06:42:36;101265.75;;;14.94;35.54
7264;BME280;3673;52.480;13.348;2023-04-28T06:45:04;101275.25;;;15.09;35.52
7264;BME280;3673;52.480;13.348;2023-04-28T06:47:32;101277.13;;;15.00;35.53
7264;BME280;3673;52.480;13.348;2023-04-28T06:49:59;101267.25;;;15.18;35.30
7264;BME280;3673;52.480;13.348;2023-04-28T06:52:28;101259.97;;;15.40;34.53
7264;BME280;3673;52.480;13.348;2023-04-28T06:54:55;101257.03;;;14.89;34.82
7264;BME280;3673;52.480;13.348;2023-04-28T06:57:22;101256.66;;;15.21;34.51
7264;BME280;3673;52.480;13.348;2023-04-28T06:59:49;101253.00;;;15.33;34.17
7264;BME280;3673;52.480;13.348;2023-04-28T07:02:16;101251.34;;;15.27;34.13
7264;BME280;3673;52.480;13.348;2023-04-28T07:04:43;101256.69;;;15.20;34.18
7264;BME280;3673;52.480;13.348;2023-04-28T07:07:10;101252.66;;;15.63;33.49
7264;BME280;3673;52.480;13.348;2023-04-28T07:09:39;101251.59;;;15.75;33.38
7264;BME280;3673;52.480;13.348;2023-04-28T07:12:06;101246.13;;;15.90;33.04
7264;BME280;3673;52.480;13.348;2023-04-28T07:14:33;101237.38;;;15.86;32.94
7264;BME280;3673;52.480;13.348;2023-04-28T07:17:00;101246.06;;;15.93;32.07
7264;BME280;3673;52.480;13.348;2023-04-28T07:19:27;101235.44;;;15.99;32.13
7264;BME280;3673;52.480;13.348;2023-04-28T07:21:54;101237.06;;;16.08;32.26
7264;BME280;3673;52.480;13.348;2023-04-28T07:24:20;101235.47;;;15.96;31.78
7264;BME280;3673;52.480;13.348;2023-04-28T07:26:50;101233.97;;;16.35;31.32
7264;BME280;3673;52.480;13.348;2023-04-28T07:29:17;101227.13;;;16.22;32.03
7264;BME280;3673;52.480;13.348;2023-04-28T07:31:44;101219.56;;;16.56;33.30
7264;BME280;3673;52.480;13.348;2023-04-28T07:34:11;101212.69;;;16.94;32.38
7264;BME280;3673;52.480;13.348;2023-04-28T07:36:38;101205.50;;;16.99;30.90
7264;BME280;3673;52.480;13.348;2023-04-28T07:39:05;101207.97;;;17.09;31.17
7264;BME280;3673;52.480;13.348;2023-04-28T07:41:36;101202.47;;;17.19;30.61
7264;BME280;3673;52.480;13.348;2023-04-28T07:44:05;101207.22;;;17.02;30.65
7264;BME280;3673;52.480;13.348;2023-04-28T07:46:33;101205.78;;;17.29;31.04
7264;BME280;3673;52.480;13.348;2023-04-28T07:49:00;101195.06;;;16.93;30.22
7264;BME280;3673;52.480;13.348;2023-04-28T07:51:27;101196.22;;;17.22;31.60
7264;BME280;3673;52.480;13.348;2023-04-28T07:53:54;101199.72;;;17.24;30.48
7264;BME280;3673;52.480;13.348;2023-04-28T07:56:21;101205.03;;;17.22;30.19
7264;BME280;3673;52.480;13.348;2023-04-28T07:58:48;101191.47;;;16.96;30.60
7264;BME280;3673;52.480;13.348;2023-04-28T08:01:17;101196.91;;;17.31;31.27
7264;BME280;3673;52.480;13.348;2023-04-28T08:03:44;101196.06;;;17.31;30.20
7264;BME280;3673;52.480;13.348;2023-04-28T08:06:11;101193.22;;;17.38;30.36
7264;BME280;3673;52.480;13.348;2023-04-28T08:08:38;101199.91;;;17.15;30.21
7264;BME280;3673;52.480;13.348;2023-04-28T08:11:05;101189.03;;;16.85;31.10
7264;BME280;3673;52.480;13.348;2023-04-28T08:13:33;101193.13;;;17.02;31.20
7264;BME280;3673;52.480;13.348;2023-04-28T08:16:00;101189.69;;;17.79;30.33
7264;BME280;3673;52.480;13.348;2023-04-28T08:18:28;101182.69;;;18.14;29.95
7264;BME280;3673;52.480;13.348;2023-04-28T08:20:55;101182.31;;;17.92;30.40
7264;BME280;3673;52.480;13.348;2023-04-28T08:23:22;101179.69;;;18.27;29.58
7264;BME280;3673;52.480;13.348;2023-04-28T08:25:52;101182.47;;;18.57;28.93
7264;BME280;3673;52.480;13.348;2023-04-28T08:28:19;101179.66;;;18.63;28.90
7264;BME280;3673;52.480;13.348;2023-04-28T08:30:46;101170.34;;;18.80;28.54
7264;BME280;3673;52.480;13.348;2023-04-28T08:33:13;101165.94;;;18.47;28.99
7264;BME280;3673;52.480;13.348;2023-04-28T08:35:42;101160.03;;;18.70;28.98
7264;BME280;3673;52.480;13.348;2023-04-28T08:38:09;101160.84;;;18.72;28.68
7264;BME280;3673;52.480;13.348;2023-04-28T08:40:38;101153.00;;;18.69;28.37
7264;BME280;3673;52.480;13.348;2023-04-28T08:43:07;101160.28;;;18.91;27.98
7264;BME280;3673;52.480;13.348;2023-04-28T08:45:41;101159.44;;;18.91;28.07
7264;BME280;3673;52.480;13.348;2023-04-28T08:48:17;101157.78;;;19.18;28.22
7264;BME280;3673;52.480;13.348;2023-04-28T08:50:50;101151.63;;;19.16;27.70
7264;BME280;3673;52.480;13.348;2023-04-28T08:53:23;101146.22;;;19.19;27.41
7264;BME280;3673;52.480;13.348;2023-04-28T08:55:54;101150.63;;;19.49;27.73
7264;BME280;3673;52.480;13.348;2023-04-28T08:58:22;101149.06;;;19.43;27.61
7264;BME280;3673;52.480;13.348;2023-04-28T09:00:50;101136.56;;;19.47;27.35
7264;BME280;3673;52.480;13.348;2023-04-28T09:03:17;101141.03;;;19.73;27.35
7264;BME280;3673;52.480;13.348;2023-04-28T09:05:44;101137.78;;;19.65;27.58
7264;BME280;3673;52.480;13.348;2023-04-28T09:08:13;101131.84;;;19.83;27.43
7264;BME280;3673;52.480;13.348;2023-04-28T09:10:40;101131.25;;;19.75;27.58
7264;BME280;3673;52.480;13.348;2023-04-28T09:13:07;101125.50;;;19.61;27.19
7264;BME280;3673;52.480;13.348;2023-04-28T09:15:35;101126.13;;;19.69;26.79
7264;BME280;3673;52.480;13.348;2023-04-28T09:18:04;101120.81;;;19.95;26.81
7264;BME280;3673;52.480;13.348;2023-04-28T09:20:33;101113.78;;;19.68;26.43
7264;BME280;3673;52.480;13.348;2023-04-28T09:23:14;101115.69;;;19.90;26.23
7264;BME280;3673;52.480;13.348;2023-04-28T09:25:56;101103.28;;;19.91;26.19
7264;BME280;3673;52.480;13.348;2023-04-28T09:28:23;101104.19;;;19.64;26.54
7264;BME280;3673;52.480;13.348;2023-04-28T09:30:50;101106.59;;;19.97;26.55
7264;BME280;3673;52.480;13.348;2023-04-28T09:33:17;101103.22;;;19.92;26.76
7264;BME280;3673;52.480;13.348;2023-04-28T09:35:44;101098.50;;;20.27;26.55
7264;BME280;3673;52.480;13.348;2023-04-28T09:38:14;101095.75;;;20.30;26.16
7264;BME280;3673;52.480;13.348;2023-04-28T09:40:56;101083.75;;;20.68;26.10
7264;BME280;3673;52.480;13.348;2023-04-28T09:43:25;101098.34;;;21.02;25.48
7264;BME280;3673;52.480;13.348;2023-04-28T09:45:54;101086.91;;;21.00;25.43
7264;BME280;3673;52.480;13.348;2023-04-28T09:48:30;101080.72;;;21.23;25.22
7264;BME280;3673;52.480;13.348;2023-04-28T09:50:58;101083.09;;;21.74;24.37
7264;BME280;3673;52.480;13.348;2023-04-28T09:53:28;101073.38;;;20.83;25.16
7264;BME280;3673;52.480;13.348;2023-04-28T09:55:58;101076.56;;;20.93;25.21
7264;BME280;3673;52.480;13.348;2023-04-28T09:58:28;101088.09;;;21.17;24.98
7264;BME280;3673;52.480;13.348;2023-04-28T10:00:57;101076.91;;;20.61;25.86
7264;BME280;3673;52.480;13.348;2023-04-28T10:03:26;101076.03;;;21.30;26.21
7264;BME280;3673;52.480;13.348;2023-04-28T10:05:54;101067.97;;;21.53;24.88
7264;BME280;3673;52.480;13.348;2023-04-28T10:08:23;101067.59;;;21.84;24.10
7264;BME280;3673;52.480;13.348;2023-04-28T10:10:53;101062.53;;;21.78;24.36
7264;BME280;3673;52.480;13.348;2023-04-28T10:13:22;101067.22;;;22.33;23.78
7264;BME280;3673;52.480;13.348;2023-04-28T10:15:49;101061.75;;;22.56;23.07
7264;BME280;3673;52.480;13.348;2023-04-28T10:18:21;101059.19;;;22.15;23.66
7264;BME280;3673;52.480;13.348;2023-04-28T10:20:56;101053.78;;;22.75;23.39
7264;BME280;3673;52.480;13.348;2023-04-28T10:24:09;101054.88;;;22.90;22.83
7264;BME280;3673;52.480;13.348;2023-04-28T10:27:05;101045.72;;;22.95;22.72
7264;BME280;3673;52.480;13.348;2023-04-28T10:29:33;101040.97;;;23.56;22.31
7264;BME280;3673;52.480;13.348;2023-04-28T10:32:21;101042.88;;;23.54;22.42
7264;BME280;3673;52.480;13.348;2023-04-28T10:34:49;101040.75;;;23.61;21.91
7264;BME280;3673;52.480;13.348;2023-04-28T10:37:16;101033.84;;;23.57;22.15
7264;BME280;3673;52.480;13.348;2023-04-28T10:40:32;101021.97;;;23.97;22.06
7264;BME280;3673;52.480;13.348;2023-04-28T10:43:02;101017.19;;;23.86;22.11
7264;BME280;3673;52.480;13.348;2023-04-28T10:46:01;101017.19;;;23.86;21.71
7264;BME280;3673;52.480;13.348;2023-04-28T10:49:04;101018.53;;;23.95;21.91
7264;BME280;3673;52.480;13.348;2023-04-28T10:51:32;101012.94;;;23.29;22.52
7264;BME280;3673;52.480;13.348;2023-04-28T10:54:16;101006.88;;;23.79;21.99
7264;BME280;3673;52.480;13.348;2023-04-28T10:57:19;100999.66;;;23.81;22.21
7264;BME280;3673;52.480;13.348;2023-04-28T10:59:51;101005.25;;;23.93;22.09
7264;BME280;3673;52.480;13.348;2023-04-28T11:02:39;101002.78;;;23.89;21.95
7264;BME280;3673;52.480;13.348;2023-04-28T11:05:14;100986.22;;;23.99;21.97
7264;BME280;3673;52.480;13.348;2023-04-28T11:11:19;100986.91;;;24.03;21.47
7264;BME280;3673;52.480;13.348;2023-04-28T11:13:47;100992.50;;;23.47;22.28
7264;BME280;3673;52.480;13.348;2023-04-28T11:16:19;100986.22;;;23.48;22.20
7264;BME280;3673;52.480;13.348;2023-04-28T11:19:00;100981.44;;;23.36;22.49
7264;BME280;3673;52.480;13.348;2023-04-28T11:21:31;100984.19;;;22.98;23.02
7264;BME280;3673;52.480;13.348;2023-04-28T11:23:59;100994.97;;;22.78;23.17
7264;BME280;3673;52.480;13.348;2023-04-28T11:26:27;100996.19;;;22.32;23.60
7264;BME280;3673;52.480;13.348;2023-04-28T11:28:56;100991.81;;;22.50;23.65
7264;BME280;3673;52.480;13.348;2023-04-28T11:31:26;100995.72;;;22.62;23.76
7264;BME280;3673;52.480;13.348;2023-04-28T11:33:59;100995.19;;;22.35;24.02
7264;BME280;3673;52.480;13.348;2023-04-28T11:36:32;100989.00;;;22.53;24.03
7264;BME280;3673;52.480;13.348;2023-04-28T11:39:01;100993.03;;;22.43;24.21
7264;BME280;3673;52.480;13.348;2023-04-28T11:41:30;100992.91;;;22.65;24.18
7264;BME280;3673;52.480;13.348;2023-04-28T11:43:57;100976.31;;;22.00;24.70
7264;BME280;3673;52.480;13.348;2023-04-28T11:46:26;100985.66;;;21.89;25.57
7264;BME280;3673;52.480;13.348;2023-04-28T11:49:01;100971.56;;;22.07;25.22
7264;BME280;3673;52.480;13.348;2023-04-28T11:51:37;100972.59;;;22.23;24.63
7264;BME280;3673;52.480;13.348;2023-04-28T11:54:05;100981.78;;;21.97;24.95
7264;BME280;3673;52.480;13.348;2023-04-28T11:56:37;100977.28;;;21.58;25.70
7264;BME280;3673;52.480;13.348;2023-04-28T11:59:06;100967.91;;;21.89;25.61
7264;BME280;3673;52.480;13.348;2023-04-28T12:01:45;100974.25;;;22.26;24.64
7264;BME280;3673;52.480;13.348;2023-04-28T12:04:12;100965.78;;;22.55;24.71
7264;BME280;3673;52.480;13.348;2023-04-28T12:06:40;100975.03;;;22.85;24.42
7264;BME280;3673;52.480;13.348;2023-04-28T12:09:17;100962.72;;;22.83;24.30
7264;BME280;3673;52.480;13.348;2023-04-28T12:11:54;100953.38;;;23.10;24.13
7264;BME280;3673;52.480;13.348;2023-04-28T12:14:21;100958.88;;;23.60;23.64
7264;BME280;3673;52.480;13.348;2023-04-28T12:16:50;100950.97;;;23.23;24.06
7264;BME280;3673;52.480;13.348;2023-04-28T12:19:17;100949.13;;;23.76;23.60
7264;BME280;3673;52.480;13.348;2023-04-28T12:22:02;100953.44;;;23.79;23.17
7264;BME280;3673;52.480;13.348;2023-04-28T12:24:30;100939.31;;;23.42;23.64
7264;BME280;3673;52.480;13.348;2023-04-28T12:27:13;100943.94;;;23.90;23.79
7264;BME280;3673;52.480;13.348;2023-04-28T12:29:42;100936.13;;;24.03;23.43
7264;BME280;3673;52.480;13.348;2023-04-28T12:32:12;100939.22;;;22.91;24.54
7264;BME280;3673;52.480;13.348;2023-04-28T12:34:43;100929.41;;;22.91;24.24
7264;BME280;3673;52.480;13.348;2023-04-28T12:37:11;100934.34;;;23.52;23.60
7264;BME280;3673;52.480;13.348;2023-04-28T12:39:40;100928.84;;;23.38;23.76
7264;BME280;3673;52.480;13.348;2023-04-28T12:42:07;100926.06;;;23.05;24.21
7264;BME280;3673;52.480;13.348;2023-04-28T12:44:35;100931.41;;;22.86;24.47
7264;BME280;3673;52.480;13.348;2023-04-28T12:47:05;100917.81;;;23.09;24.92
7264;BME280;3673;52.480;13.348;2023-04-28T12:49:34;100921.09;;;22.97;25.14
7264;BME280;3673;52.480;13.348;2023-04-28T12:52:01;100922.16;;;22.19;25.55
7264;BME280;3673;52.480;13.348;2023-04-28T12:54:28;100917.16;;;22.69;25.20
7264;BME280;3673;52.480;13.348;2023-04-28T12:56:55;100921.69;;;22.48;25.26
7264;BME280;3673;52.480;13.348;2023-04-28T12:59:22;100914.09;;;22.01;25.59
7264;BME280;3673;52.480;13.348;2023-04-28T13:01:49;100900.00;;;22.37;25.30
7264;BME280;3673;52.480;13.348;2023-04-28T13:04:16;100905.16;;;22.58;25.33
7264;BME280;3673;52.480;13.348;2023-04-28T13:06:45;100895.03;;;22.67;25.26
7264;BME280;3673;52.480;13.348;2023-04-28T13:09:13;100904.03;;;22.83;25.13
7264;BME280;3673;52.480;13.348;2023-04-28T13:11:41;100900.16;;;23.24;24.82